Tiempo atmosférico en la estación meteorológica de Camaleño, Fuente De, Cantabria (1090 m.)



Fecha
DESCASC
Temp. máxima en grados centígrados (hora)
DESCASC
Temp. mínima en grados centígrados (hora)
DESCASC
Temp. media en grados centígrados
DESCASC
Racha de viento máxima en m/sg (hora)
DESCASC
Velocidad máxima media en intervalos de 10 minutos(hora)
DESCASC
Precipitaciones diarias en mm
DESCASC
Precipitaciones de 00:00 a 06:00 en mm
DESCASC
Precipitaciones de 06:00 a 12:00 en mm
DESCASC
Precipitaciones de 12:00 a 18:00 en mm
DESCASC
Precipitaciones de 18:00 a 24:00 en mm
DESCASC
28-02-2021 10.6 (15:50) -1.8 (08:40) 4.4 4.72 (12:00) 1.94 (12:20) 0 0 0 0 0
27-02-2021 13.3 (15:30) 0.9 (23:59) 7.1 3.89 (17:50) 1.94 (17:50) 0 0 0 0 0
26-02-2021 10.1 (16:20) 5.4 (06:40) 7.8 3.33 (15:30) 1.39 (16:30) 0.4 0.4 0 0 0
25-02-2021 10.6 (14:40) 5.7 (00:00) 8.2 6.67 (01:30) 2.78 (07:20) 1 0 0 0 1
24-02-2021 15.1 (14:50) 7.2 (00:00) 11.2 15.56 (04:10) 5 (03:00) 0 0 0 0 0
23-02-2021 12.9 (15:50) 2.9 (00:00) 7.9 13.61 (09:00) 4.72 (09:50) 0 0 0 0 0
22-02-2021 10.1 (16:10) 0.3 (00:00) 5.2 6.39 (23:30) 3.06 (23:50) 3.2 0 2.4 0.8 0
21-02-2021 11 (06:10) 0.4 (00:00) 5.7 11.11 (00:50) 4.17 (00:10) 4 0 0 0 4
20-02-2021 12.5 (13:20) 7.9 (00:00) 10.2 17.22 (04:50) 5.56 (07:20) 0.4 0 0 0.4 0
19-02-2021 9.8 (15:20) 7.6 (00:00) 8.7 14.72 (20:00) 5.28 (02:40) 0 0 0 0 0
18-02-2021 10 (00:30) 6.5 (00:00) 8.3 12.78 (09:10) 4.17 (06:00) 0 0 0 0 0
17-02-2021 10.1 (16:50) 3 (00:00) 6.6 13.61 (22:50) 3.61 (20:20) 0 0 0 0 0
16-02-2021 11.3 (00:10) 4.1 (00:00) 7.7 13.61 (11:00) 4.17 (11:00) 0.4 0 0 0.4 0
15-02-2021 13.2 (13:20) 6.6 (00:00) 9.9 11.67 (05:20) 4.44 (16:20) 0 0 0 0 0
14-02-2021 12.2 (13:20) 3.2 (00:00) 7.7 12.22 (13:00) 5 (15:00) 0 0 0 0 0
13-02-2021 12.3 (15:20) 1.5 (00:00) 6.9 7.5 (14:40) 2.78 (15:00) 0.6 0 0.6 0 0
12-02-2021 10.6 (00:00) 1.8 (00:00) 6.2 8.33 (08:30) 2.5 (17:10) 1.4 0 1.4 0 0
11-02-2021 11.3 (14:40) 5.3 (00:00) 8.3 11.67 (23:30) 3.61 (11:00) 0 0 0 0 0
10-02-2021 10.4 (14:50) 0.7 (00:00) 5.5 12.5 (11:00) 4.72 (10:50) 0 0 0 0 0
09-02-2021 7.2 (15:30) 1.4 (00:00) 4.3 15.28 (12:50) 3.33 (01:40) 9.2 1.6 5.6 0.8 1.2
08-02-2021 9.4 (14:10) 2.3 (00:00) 5.8 10.28 (01:40) 3.33 (01:40) 0.4 0.2 0 0 0.2
07-02-2021 5.1 (13:20) -3 (-00:0) 1 8.89 (13:50) 3.61 (13:30) 10.8 0 0 8 2.8
06-02-2021 3.8 (14:20) -0.4 (00:00) 1.7 5.28 (17:50) 2.22 (17:00) 7.4 4 2 1.4 0
05-02-2021 5.3 (15:20) 2.5 (00:00) 3.9 3.06 (16:00) 1.11 (21:10) 10.4 0 0 0 10.4
04-02-2021 7.7 (00:00) 3.1 (00:00) 5.4 8.61 (00:50) 2.5 (01:10) 0 0 0 0 0
03-02-2021 8.9 (14:10) 7.3 (00:00) 8.1 13.61 (09:20) 5 (09:30) 5 4 1 0 0
02-02-2021 11.6 (12:20) 7.1 (00:00) 9.4 11.39 (11:40) 4.17 (04:30) 3.6 0 0 1 2.6
01-02-2021 14.7 (13:50) 7.5 (00:00) 11.1 17.78 (08:50) 5.28 (09:20) 0 0 0 0 0
31-01-2021 15 (13:50) 3 (00:00) 9 11.39 (19:10) 4.17 (23:10) 8 2.4 5.6 0 0

Gráficas

Temp. máximas Temp. mínimas Temp. medias Precipitaciones Rachas de viento máximas Velocidades máximas media en intervalos de 10 minutos

Datos horarios

Fecha y hora oficial Temperatura (ºC) Velocidad del viento (km/h) Dirección del viento Racha (km/h) Dirección de racha Precipitación (mm) Presión (hPa) Tendencia (hPa) Humedad (%)
2021-03-01 23:00:00 5.6 5 Sur 10 Noroeste 0 -- -- 98
2021-03-01 22:00:00 5.7 4 Sudoeste 6 Sudoeste 0.4 -- -- 97
2021-03-01 21:00:00 5.8 0 Calma 4 Noroeste 0 -- -- 94
2021-03-01 20:00:00 6 3 Sudoeste 8 Oeste 0 -- -- 93
2021-03-01 19:00:00 7.1 3 Sudoeste 5 Sur 0 -- -- 84
2021-03-01 18:00:00 8.5 2 Sudoeste 6 Este 0 -- -- 75
2021-03-01 17:00:00 9 0 Calma 16 Oeste 0 -- -- 67
2021-03-01 16:00:00 8.7 6 Oeste 20 Oeste 0 -- -- 67
2021-03-01 15:00:00 8.4 9 Noroeste 24 Noroeste 0 -- -- 69
2021-03-01 14:00:00 8.6 10 Noroeste 29 Noroeste 0 -- -- 67
2021-03-01 13:00:00 7.3 10 Noroeste 32 Noroeste 0 -- -- 76
2021-03-01 12:00:00 6.3 5 Noroeste 17 Norte 0 -- -- 88
2021-03-01 11:00:00 5.4 2 Norte 15 Oeste 0 -- -- 91
2021-03-01 10:00:00 5.4 5 Sur 18 Noroeste 0 -- -- 86
2021-03-01 09:00:00 5.2 5 Noroeste 22 Noroeste 0.8 -- -- 87
2021-03-01 08:00:00 4.9 10 Noroeste 22 Noroeste 1.2 -- -- 83
2021-03-01 07:00:00 3.6 3 Sur 9 Noroeste 0.6 -- -- 96
2021-03-01 06:00:00 4.4 4 Oeste 14 Oeste 2.8 -- -- 93
2021-03-01 05:00:00 6.1 7 Noroeste 25 Noroeste 0 -- -- 76
2021-03-01 04:00:00 6.2 5 Noroeste 24 Noroeste 0 -- -- 67
2021-03-01 03:00:00 5 4 Oeste 12 Oeste 0 -- -- 67
2021-03-01 02:00:00 5.2 6 Oeste 20 Norte 0 -- -- 62
2021-03-01 01:00:00 3.2 3 Este 11 Oeste 0 -- -- 79
2021-03-01 00:00:00 2.9 3 Noroeste 11 Noroeste 0 -- -- 85
2021-02-28 23:00:00 2.9 3 Sur 8 Sur 0 -- -- 88
2021-02-28 22:00:00 2.9 3 Sudoeste 10 Sudoeste 0 -- -- 87
2021-02-28 21:00:00 4.2 3 Oeste 8 Sur 0 -- -- 82
2021-02-28 20:00:00 4.8 3 Sudoeste 6 Oeste 0 -- -- 82
2021-02-28 19:00:00 5.3 3 Oeste 9 Sudoeste 0 -- -- 77
2021-02-28 18:00:00 7.2 3 Sudoeste 8 Sudoeste 0 -- -- 62
2021-02-28 17:00:00 10.1 4 Sudoeste 12 Sudeste 0 -- -- 52
2021-02-28 16:00:00 10.5 5 Sudeste 13 Sur 0 -- -- 48
2021-02-28 15:00:00 10.1 4 Sudoeste 12 Sudoeste 0 -- -- 46
2021-02-28 14:00:00 9.5 5 Sur 14 Sudoeste 0 -- -- 45
2021-02-28 13:00:00 8.2 5 Sudeste 16 Sur 0 -- -- 55
2021-02-28 12:00:00 7.2 5 Sudeste 17 Sur 0 -- -- 56
2021-02-28 11:00:00 2.8 3 Este 9 Este 0 -- -- 61
2021-02-28 10:00:00 -0.4 0 Calma 0 Calma 0 -- -- 70
2021-02-28 09:00:00 -1.7 0 Calma 4 Sur 0 -- -- 68
2021-02-28 08:00:00 -0.9 0 Calma 4 Sudeste 0 -- -- 65
2021-02-28 07:00:00 0.2 0 Calma 4 Noroeste 0 -- -- 54
2021-02-28 06:00:00 0.2 2 Sur 5 Oeste 0 -- -- 63
2021-02-28 05:00:00 0.3 2 Sudoeste 4 Oeste 0 -- -- 68
2021-02-28 04:00:00 0 0 Calma 4 Noroeste 0 -- -- 74
2021-02-28 03:00:00 0.1 0 Calma 4 Sudeste 0 -- -- 82
2021-02-28 02:00:00 0.5 2 Oeste 5 Oeste 0 -- -- 88
2021-02-28 01:00:00 0.5 0 Calma 4 Noroeste 0 -- -- 88
2021-02-28 00:00:00 0.9 0 Calma 5 Sur 0 -- -- 87
2021-02-27 23:00:00 2 0 Calma 5 Sudoeste 0 -- -- 86
2021-02-27 22:00:00 2.5 0 Calma 6 Sudoeste 0 -- -- 90
2021-02-27 21:00:00 3.2 2 Oeste 4 Noroeste 0 -- -- 90
2021-02-27 20:00:00 4 2 Sudoeste 5 Sudoeste 0 -- -- 87
2021-02-27 19:00:00 5.9 0 Calma 11 Oeste 0 -- -- 81
2021-02-27 18:00:00 8.4 4 Oeste 14 Oeste 0 -- -- 74
2021-02-27 17:00:00 12.9 4 Sudoeste 12 Sur 0 -- -- 52
2021-02-27 16:00:00 13 4 Sur 12 Este 0 -- -- 56
2021-02-27 15:00:00 12.9 4 Sudoeste 11 Sudeste 0 -- -- 43
2021-02-27 14:00:00 12 4 Sudeste 12 Sudoeste 0 -- -- 56
2021-02-27 13:00:00 9.8 5 Noroeste 8 Noroeste 0 -- -- 70
2021-02-27 12:00:00 5.4 3 Este 6 Este 0 -- -- 86
2021-02-27 11:00:00 4.4 3 Sur 5 Sur 0 -- -- 90
2021-02-27 10:00:00 4 3 Este 6 Este 0 -- -- 91
2021-02-27 09:00:00 3.7 3 Noroeste 6 Noroeste 0 -- -- 92
2021-02-27 08:00:00 3.8 0 Calma 8 Este 0 -- -- 92
2021-02-27 07:00:00 3.9 3 Este 6 Este 0 -- -- 93
2021-02-27 06:00:00 3.4 0 Calma 3 Noroeste 0 -- -- 96
2021-02-27 05:00:00 3.4 0 Calma 4 Sur 0 -- -- 91
2021-02-27 04:00:00 5 0 Calma 6 Sudoeste 0 -- -- 89
2021-02-27 03:00:00 5.2 0 Calma 5 Noroeste 0 -- -- 90
2021-02-27 02:00:00 5.3 0 Calma 4 Oeste 0 -- -- 91
2021-02-27 01:00:00 5.4 2 Sudoeste 4 Sudoeste 0 -- -- 91
2021-02-27 00:00:00 5.7 2 Sudoeste 6 Sudoeste 0 -- -- 96
2021-02-26 23:00:00 5.9 0 Calma 4 Este 0 -- -- 96
2021-02-26 22:00:00 6 2 Este 6 Sur 0 -- -- 95
2021-02-26 21:00:00 6.6 3 Sur 5 Sudeste 0 -- -- 96
2021-02-26 20:00:00 7.1 2 Sur 7 Sudoeste 0 -- -- 92
2021-02-26 19:00:00 7.5 0 Calma 8 Sudoeste 0 -- -- 89
2021-02-26 18:00:00 8.2 4 Sudoeste 10 Sudoeste 0 -- -- 86
2021-02-26 17:00:00 9.7 3 Sudoeste 10 Sur 0 -- -- 80
2021-02-26 16:00:00 9.6 3 Sur 12 Oeste 0 -- -- 78
2021-02-26 15:00:00 9.5 2 Sur 11 Sur 0 -- -- 80
2021-02-26 14:00:00 9.6 3 Sudeste 8 Nordeste 0 -- -- 78
2021-02-26 13:00:00 8.9 2 Norte 6 Este 0 -- -- 82
2021-02-26 12:00:00 8.1 0 Calma 7 Noroeste 0 -- -- 87
2021-02-26 11:00:00 6.8 0 Calma 5 Nordeste 0 -- -- 90
2021-02-26 10:00:00 6 0 Calma 2 Norte 0 -- -- 99
2021-02-26 09:00:00 5.4 0 Calma 3 Sur 0 -- -- 100
2021-02-26 08:00:00 5.4 0 Calma 3 Sudoeste 0 -- -- 100
2021-02-26 07:00:00 5.4 0 Calma 3 Sur 0 -- -- 100
2021-02-26 06:00:00 5.5 0 Calma 2 Este 0 -- -- 100
2021-02-26 05:00:00 5.5 0 Calma 4 Sur 0.2 -- -- 100
2021-02-26 04:00:00 5.6 0 Calma -- -- 0 -- -- 99
2021-02-26 03:00:00 5.6 0 Calma -- -- 0 -- -- 99
2021-02-26 02:00:00 5.7 0 Calma 4 Sudoeste 0.2 -- -- 99
2021-02-26 01:00:00 5.7 0 Calma 4 Sudoeste 0 -- -- 99
2021-02-26 00:00:00 5.7 0 Calma 3 Nordeste 0.2 -- -- 98
2021-02-25 23:00:00 5.7 0 Calma 3 Sur 0 -- -- 99
2021-02-25 22:00:00 5.7 0 Calma 4 Sudoeste 0.4 -- -- 98
2021-02-25 21:00:00 5.9 2 Sudoeste 9 Sudoeste 0.4 -- -- 98
2021-02-25 20:00:00 6.4 4 Sudoeste 9 Sur 0 -- -- 96
2021-02-25 19:00:00 7.3 3 Sudoeste 13 Sudoeste 0 -- -- 92
2021-02-25 18:00:00 8.8 4 Sudoeste 9 Sudoeste 0 -- -- 83
2021-02-25 17:00:00 9.3 2 Sudeste 6 Sudoeste 0 -- -- 73
2021-02-25 16:00:00 9.4 3 Oeste 9 Sur 0 -- -- 74
2021-02-25 15:00:00 10.2 2 Sur 8 Sudeste 0 -- -- 71
2021-02-25 14:00:00 8.8 0 Calma 6 Este 0 -- -- 77
2021-02-25 13:00:00 7.7 0 Calma 4 Este 0 -- -- 85
2021-02-25 12:00:00 7.1 0 Calma 6 Sudoeste 0 -- -- 86
2021-02-25 11:00:00 7.6 2 Sur 12 Sur 0 -- -- 83
2021-02-25 10:00:00 8.4 3 Este 10 Sudeste 0 -- -- 72
2021-02-25 09:00:00 8.5 4 Este 17 Noroeste 0 -- -- 70
2021-02-25 08:00:00 8.6 8 Noroeste 20 Noroeste 0 -- -- 69
2021-02-25 07:00:00 8.9 6 Noroeste 21 Noroeste 0 -- -- 68
2021-02-25 06:00:00 9 6 Noroeste 17 Norte 0 -- -- 68
2021-02-25 05:00:00 9.1 4 Noroeste 19 Oeste 0 -- -- 68
2021-02-25 04:00:00 9.5 4 Este 23 Noroeste 0 -- -- 65
2021-02-25 03:00:00 9.6 7 Este 19 Oeste 0 -- -- 63
2021-02-25 02:00:00 9.7 5 Este 24 Oeste 0 -- -- 62
2021-02-25 01:00:00 10 8 Este 20 Oeste 0 -- -- 59
2021-02-25 00:00:00 10 6 Sudeste 25 Nordeste 0 -- -- 66
2021-02-24 23:00:00 10.2 8 Nordeste 27 Noroeste 0 -- -- 63
2021-02-24 22:00:00 10.5 6 Sur 27 Noroeste 0 -- -- 63
2021-02-24 21:00:00 10.4 6 Nordeste 28 Este 0 -- -- 60
2021-02-24 20:00:00 10.7 6 Norte 27 Sudoeste 0 -- -- 57
2021-02-24 19:00:00 11 8 Este 36 Sudeste 0 -- -- 56
2021-02-24 18:00:00 11.3 8 Nordeste 22 Este 0 -- -- 54
2021-02-24 17:00:00 13 7 Este 36 Este 0 -- -- 46
2021-02-24 16:00:00 14.6 5 Sudeste 27 Nordeste 0 -- -- 37
2021-02-24 15:00:00 14.8 8 Nordeste 29 Norte 0 -- -- 37
2021-02-24 14:00:00 14.5 11 Norte 53 Oeste 0 -- -- 35
2021-02-24 13:00:00 13.9 8 Oeste 37 Sur 0 -- -- 31
2021-02-24 12:00:00 12.6 10 Este 38 Norte 0 -- -- 31
2021-02-24 11:00:00 10 9 Sudeste 29 Sudoeste 0 -- -- 36
2021-02-24 10:00:00 8.9 7 Sudeste 36 Sur 0 -- -- 38
2021-02-24 09:00:00 7.9 9 Sudeste 31 Este 0 -- -- 45
2021-02-24 08:00:00 7.4 9 Sudeste 39 Sudeste 0 -- -- 50
2021-02-24 07:00:00 7.7 6 Este 28 Este 0 -- -- 52
2021-02-24 06:00:00 7.9 6 Este 39 Noroeste 0 -- -- 51
2021-02-24 05:00:00 8.1 13 Norte 56 Nordeste 0 -- -- 48
2021-02-24 04:00:00 7.5 16 Este 48 Noroeste 0 -- -- 59
2021-02-24 03:00:00 8 18 Norte 41 Norte 0 -- -- 56
2021-02-24 02:00:00 8.1 12 Este 35 Este 0 -- -- 51
2021-02-24 01:00:00 8.1 13 Nordeste 37 Este 0 -- -- 55
2021-02-24 00:00:00 8.5 10 Nordeste 46 Este 0 -- -- 50
2021-02-23 23:00:00 8.3 8 Nordeste 31 Este 0 -- -- 51
2021-02-23 22:00:00 8.5 9 Sudeste 40 Oeste 0 -- -- 52
2021-02-23 21:00:00 9.1 12 Nordeste 38 Sudoeste 0 -- -- 18
2021-02-23 20:00:00 9.1 10 Sudeste 33 Nordeste 0 -- -- 23
2021-02-23 19:00:00 9.5 12 Este 36 Este 0 -- -- 28
2021-02-23 18:00:00 9.8 12 Este 40 Este 0 -- -- 30
2021-02-23 17:00:00 11.4 10 Sudeste 25 Sur 0 -- -- 30
2021-02-23 16:00:00 12.3 8 Sudeste 26 Sur 0 -- -- 30
2021-02-23 15:00:00 11.7 9 Este 32 Este 0 -- -- 30
2021-02-23 14:00:00 11.8 6 Este 33 Sudoeste 0 -- -- 30
2021-02-23 13:00:00 11.1 12 Sudoeste 34 Sur 0 -- -- 32
2021-02-23 12:00:00 10.2 12 Sur 37 Sur 0 -- -- 34
2021-02-23 11:00:00 7.3 14 Sur 37 Sudoeste 0 -- -- 40
2021-02-23 10:00:00 6.8 15 Sur 42 Sur 0 -- -- 43
2021-02-23 09:00:00 6 16 Sur 49 Sur 0 -- -- 39
2021-02-23 08:00:00 5.8 9 Este 26 Sudoeste 0 -- -- 33
2021-02-23 07:00:00 5.4 10 Sur 31 Sur 0 -- -- 39
2021-02-23 06:00:00 3 5 Sudoeste 23 Sur 0 -- -- 57
2021-02-23 05:00:00 3 4 Sudoeste 11 Sudoeste 0 -- -- 55
2021-02-23 04:00:00 3.7 4 Oeste 19 Oeste 0 -- -- 51
2021-02-23 03:00:00 4.7 5 Sudeste 33 Sur 0 -- -- 56
2021-02-23 02:00:00 5.4 10 Sudoeste 37 Norte 0 -- -- 47
2021-02-23 01:00:00 5.5 5 Noroeste 33 Noroeste 0 -- -- 46
2021-02-23 00:00:00 5.7 7 Noroeste 23 Oeste 0 -- -- 48
2021-02-22 23:00:00 5.4 8 Sudoeste 19 Sudoeste 0 -- -- 51
2021-02-22 22:00:00 4.3 5 Norte 14 Noroeste 0 -- -- 61
2021-02-22 21:00:00 2.6 3 Oeste 6 Sudoeste 0 -- -- 78
2021-02-22 20:00:00 3.2 0 Calma 5 Noroeste 0 -- -- 75
2021-02-22 19:00:00 4.7 3 Sur 7 Oeste 0 -- -- 74
2021-02-22 18:00:00 6.7 4 Sur 16 Sur 0 -- -- 55
2021-02-22 17:00:00 8.6 4 Nordeste 19 Oeste 0 -- -- 55
2021-02-22 16:00:00 9.9 6 Sudoeste 19 Oeste 0 -- -- 51
2021-02-22 15:00:00 9.4 5 Sudeste 21 Sudoeste 0 -- -- 55
2021-02-22 14:00:00 9.1 4 Sur 13 Este 0 -- -- 55
2021-02-22 13:00:00 7.1 5 Nordeste 11 Este 0.8 -- -- 65
2021-02-22 12:00:00 5.4 6 Este 12 Este 2.2 -- -- 70
2021-02-22 11:00:00 3 4 Nordeste 9 Nordeste 0.2 -- -- 94
2021-02-22 10:00:00 1.2 0 Calma 4 Este 0 -- -- 100
2021-02-22 09:00:00 0.6 3 Oeste 5 Oeste 0 -- -- 100
2021-02-22 08:00:00 0.4 0 Calma 5 Sudoeste 0 -- -- 100
2021-02-22 07:00:00 0.4 0 Calma 8 Sudeste 0 -- -- 100
2021-02-22 06:00:00 0.5 0 Calma 5 Este 0 -- -- 100
2021-02-22 05:00:00 0.5 0 Calma 4 Oeste 0 -- -- 100
2021-02-22 04:00:00 0.5 0 Calma 4 Sur 0 -- -- 100
2021-02-22 03:00:00 0.4 0 Calma 6 Sur 0 -- -- 100
2021-02-22 02:00:00 0.4 0 Calma 5 Sur 0 -- -- 100
2021-02-22 01:00:00 0.4 0 Calma 3 Oeste 0 -- -- 99
2021-02-22 00:00:00 0.4 0 Calma 2 Sudoeste 0 -- -- 99
2021-02-21 23:00:00 0.4 0 Calma 3 Oeste 0.2 -- -- 98
2021-02-21 22:00:00 0.5 0 Calma 2 Noroeste 0 -- -- 97
2021-02-21 21:00:00 1 0 Calma 4 Oeste 0.2 -- -- 94
2021-02-21 20:00:00 2.5 0 Calma 8 Este 3 -- -- 91
2021-02-21 19:00:00 4.3 3 Sur 8 Sur 0.6 -- -- 95
2021-02-21 18:00:00 5.6 0 Calma 3 Sur 0 -- -- 96
2021-02-21 17:00:00 5.8 0 Calma 10 Oeste 0 -- -- 95
2021-02-21 16:00:00 6.6 3 Oeste 6 Oeste 0 -- -- 89
2021-02-21 15:00:00 7.6 2 Oeste 22 Noroeste 0 -- -- 86
2021-02-21 14:00:00 8.3 9 Noroeste 31 Noroeste 0 -- -- 72
2021-02-21 13:00:00 8 10 Oeste 28 Noroeste 0 -- -- 75
2021-02-21 12:00:00 8.3 8 Noroeste 27 Noroeste 0 -- -- 75
2021-02-21 11:00:00 9.2 9 Oeste 33 Noroeste 0 -- -- 64
2021-02-21 10:00:00 8.9 12 Noroeste 29 Nordeste 0 -- -- 60
2021-02-21 09:00:00 9.8 7 Nordeste 29 Oeste 0 -- -- 48
2021-02-21 08:00:00 10.4 8 Norte 31 Noroeste 0 -- -- 42
2021-02-21 07:00:00 10.8 9 Noroeste 33 Noroeste 0 -- -- 39
2021-02-21 06:00:00 10.9 14 Noroeste 37 Noroeste 0 -- -- 38
2021-02-21 05:00:00 10.8 6 Oeste 27 Oeste 0 -- -- 32
2021-02-21 04:00:00 10.5 8 Noroeste 24 Oeste 0 -- -- 35
2021-02-21 03:00:00 9.7 5 Oeste 35 Norte 0 -- -- 35
2021-02-21 02:00:00 9.9 10 Norte 39 Oeste 0 -- -- 37
2021-02-21 01:00:00 10.1 11 Noroeste 40 Norte 0 -- -- 36
2021-02-21 00:00:00 10.3 10 Noroeste 44 Norte 0 -- -- 38
2021-02-20 23:00:00 10.2 10 Noroeste 37 Oeste 0 -- -- 41
2021-02-20 22:00:00 9.9 8 Noroeste 33 Sur 0 -- -- 47
2021-02-20 21:00:00 10.1 11 Noroeste 47 Noroeste 0 -- -- 48
2021-02-20 20:00:00 10.2 8 Oeste 49 Noroeste 0 -- -- 48
2021-02-20 19:00:00 9.8 13 Noroeste 37 Noroeste 0 -- -- 50
2021-02-20 18:00:00 8.9 9 Noroeste 28 Noroeste 0.2 -- -- 59
2021-02-20 17:00:00 8.5 9 Este 49 Noroeste 0.2 -- -- 69
2021-02-20 16:00:00 9.7 8 Nordeste 49 Noroeste 0 -- -- 62
2021-02-20 15:00:00 11.3 19 Noroeste 44 Oeste 0 -- -- 49
2021-02-20 14:00:00 11.6 12 Norte 58 Norte 0 -- -- 44
2021-02-20 13:00:00 11.9 11 Sudeste 54 Norte 0 -- -- 38
2021-02-20 12:00:00 11.4 14 Este 48 Norte 0 -- -- 40
2021-02-20 11:00:00 9.5 11 Este 58 Oeste 0 -- -- 42
2021-02-20 10:00:00 8.6 15 Noroeste 55 Norte 0 -- -- 48
2021-02-20 09:00:00 8.1 11 Norte 54 Norte 0 -- -- 46
2021-02-20 08:00:00 8.3 17 Noroeste 55 Oeste 0 -- -- 45
2021-02-20 07:00:00 8.3 12 Norte 50 Noroeste 0 -- -- 47
2021-02-20 06:00:00 8.2 13 Norte 49 Noroeste 0 -- -- 54
2021-02-20 05:00:00 8.6 13 Norte 62 Oeste 0 -- -- 50
2021-02-20 04:00:00 8.5 14 Este 42 Nordeste 0 -- -- 59
2021-02-20 03:00:00 8.7 13 Sudeste 44 Noroeste 0 -- -- 66
2021-02-20 02:00:00 8.8 10 Este 51 Este 0 -- -- 67
2021-02-20 01:00:00 8.5 10 Sudeste 33 Sudeste 0 -- -- 68
2021-02-20 00:00:00 8.8 6 Este 44 Oeste 0 -- -- 65
2021-02-19 23:00:00 8.6 10 Sudeste 31 Nordeste 0 -- -- 66
2021-02-19 22:00:00 8.6 9 Este 32 Sur 0 -- -- 64
2021-02-19 21:00:00 8.7 6 Sudeste 36 Noroeste 0 -- -- 58
2021-02-19 20:00:00 9.1 11 Norte 53 Noroeste 0 -- -- 58
2021-02-19 19:00:00 9.1 10 Sudeste 33 Noroeste 0 -- -- 57
2021-02-19 18:00:00 9.5 11 Sur 38 Norte 0 -- -- 54
2021-02-19 17:00:00 9.8 9 Este 44 Oeste 0 -- -- 53
2021-02-19 16:00:00 9.7 8 Sudeste 40 Noroeste 0 -- -- 54
2021-02-19 15:00:00 9.6 8 Sudeste 25 Sudoeste 0 -- -- 59
2021-02-19 14:00:00 9.3 11 Oeste 29 Noroeste 0 -- -- 63
2021-02-19 13:00:00 9.1 9 Este 37 Noroeste 0 -- -- 63
2021-02-19 12:00:00 9.3 10 Norte 30 Noroeste 0 -- -- 62
2021-02-19 11:00:00 9.2 12 Noroeste 40 Noroeste 0 -- -- 64
2021-02-19 10:00:00 8.5 10 Norte 29 Norte 0 -- -- 66
2021-02-19 09:00:00 8 12 Norte 41 Noroeste 0 -- -- 66
2021-02-19 08:00:00 7.6 6 Nordeste 27 Sudeste 0 -- -- 69
2021-02-19 07:00:00 7.9 9 Sur 32 Oeste 0 -- -- 62
2021-02-19 06:00:00 8.2 12 Norte 37 Oeste 0 -- -- 65
2021-02-19 05:00:00 8.1 11 Norte 46 Noroeste 0 -- -- 61
2021-02-19 04:00:00 8.1 17 Noroeste 41 Noroeste 0 -- -- 59
2021-02-19 03:00:00 7.7 12 Norte 50 Norte 0 -- -- 60
2021-02-19 02:00:00 7.9 9 Nordeste 38 Noroeste 0 -- -- 65
2021-02-19 01:00:00 7.9 11 Nordeste 46 Sur 0 -- -- 62
2021-02-19 00:00:00 7.9 8 Norte 36 Noroeste 0 -- -- 64
2021-02-18 23:00:00 7.9 13 Norte 39 Noroeste 0 -- -- 64
2021-02-18 22:00:00 8.1 8 Norte 44 Noroeste 0 -- -- 66
2021-02-18 21:00:00 8.1 8 Este 26 Oeste 0 -- -- 65
2021-02-18 20:00:00 7.3 7 Este 25 Noroeste 0 -- -- 75
2021-02-18 19:00:00 7.4 7 Sudeste 28 Este 0 -- -- 73
2021-02-18 18:00:00 7 6 Este 25 Sudoeste 0 -- -- 81
2021-02-18 17:00:00 8.9 8 Sudeste 37 Nordeste 0 -- -- 66
2021-02-18 16:00:00 8.7 10 Sudeste 27 Sudoeste 0 -- -- 74
2021-02-18 15:00:00 7.9 5 Sudeste 25 Sudeste 0 -- -- 79
2021-02-18 14:00:00 7.6 5 Sudeste 24 Este 0 -- -- 85
2021-02-18 13:00:00 8.6 6 Este 20 Este 0 -- -- 77
2021-02-18 12:00:00 7.9 5 Este 22 Noroeste 0 -- -- 79
2021-02-18 11:00:00 8 8 Este 21 Este 0 -- -- 77
2021-02-18 10:00:00 6.7 7 Este 46 Sudoeste 0 -- -- 82
2021-02-18 09:00:00 8 10 Sudeste 37 Sur 0 -- -- 65
2021-02-18 08:00:00 7.5 9 Este 37 Noroeste 0 -- -- 78
2021-02-18 07:00:00 8.5 10 Este 37 Sur 0 -- -- 66
2021-02-18 06:00:00 8.7 15 Sudeste 37 Sur 0 -- -- 62
2021-02-18 05:00:00 9 11 Sudeste 35 Nordeste 0 -- -- 60
2021-02-18 04:00:00 9.4 11 Norte 35 Nordeste 0 -- -- 61
2021-02-18 03:00:00 9.5 13 Sudeste 36 Sudeste 0 -- -- 65
2021-02-18 02:00:00 9.6 11 Sudeste 40 Sudeste 0 -- -- 66
2021-02-18 01:00:00 9.7 8 Sudeste 42 Sur 0 -- -- 68
2021-02-18 00:00:00 9.7 8 Este 27 Nordeste 0 -- -- 69
2021-02-17 23:00:00 9.3 8 Este 49 Noroeste 0 -- -- 73
2021-02-17 22:00:00 9.8 9 Sudeste 47 Noroeste 0 -- -- 68
2021-02-17 21:00:00 9.1 8 Sudeste 34 Norte 0 -- -- 70
2021-02-17 20:00:00 9.4 10 Este 25 Sur 0 -- -- 71
2021-02-17 19:00:00 9.4 7 Nordeste 33 Noroeste 0 -- -- 69
2021-02-17 18:00:00 9.6 5 Este 24 Este 0 -- -- 65
2021-02-17 17:00:00 10.1 10 Norte 30 Nordeste 0 -- -- 57
2021-02-17 16:00:00 9.4 8 Norte 30 Sur 0 -- -- 56
2021-02-17 15:00:00 9.2 12 Sudeste 29 Sudoeste 0 -- -- 56
2021-02-17 14:00:00 9.7 9 Este 35 Norte 0 -- -- 56
2021-02-17 13:00:00 9.4 7 Nordeste 29 Norte 0 -- -- 59
2021-02-17 12:00:00 8.7 9 Noroeste 34 Noroeste 0 -- -- 61
2021-02-17 11:00:00 8.5 9 Sur 28 Sudoeste 0 -- -- 62
2021-02-17 10:00:00 7.2 7 Noroeste 38 Noroeste 0 -- -- 61
2021-02-17 09:00:00 5.9 4 Este 24 Sur 0 -- -- 66
2021-02-17 08:00:00 5.8 5 Sur 20 Oeste 0 -- -- 64
2021-02-17 07:00:00 6 8 Sur 25 Sur 0 -- -- 60
2021-02-17 06:00:00 5.3 8 Sur 31 Sudoeste 0 -- -- 66
2021-02-17 05:00:00 3 3 Norte 16 Sur 0 -- -- 75
2021-02-17 04:00:00 3.3 5 Sudoeste 19 Sudoeste 0 -- -- 74
2021-02-17 03:00:00 3.6 2 Sudoeste 8 Oeste 0 -- -- 69
2021-02-17 02:00:00 5.6 3 Oeste 21 Sur 0 -- -- 64
2021-02-17 01:00:00 5.6 3 Sur 16 Sur 0 -- -- 67
2021-02-17 00:00:00 5.8 5 Sur 21 Sudoeste 0 -- -- 63
2021-02-16 23:00:00 4.2 2 Sudeste 6 Sudoeste 0 -- -- 66
2021-02-16 22:00:00 4.8 3 Sudoeste 7 Noroeste 0 -- -- 61
2021-02-16 21:00:00 6 2 Oeste 24 Sur 0 -- -- 65
2021-02-16 20:00:00 7.7 5 Sur 17 Sudoeste 0 -- -- 57
2021-02-16 19:00:00 8.6 5 Sudeste 30 Sur 0 -- -- 60
2021-02-16 18:00:00 8.8 6 Este 25 Sudeste 0 -- -- 70
2021-02-16 17:00:00 8.7 6 Sur 29 Sur 0 -- -- 78
2021-02-16 16:00:00 8.4 5 Sudoeste 23 Sudoeste 0.4 -- -- 83
2021-02-16 15:00:00 10 9 Sudoeste 28 Nordeste 0 -- -- 65
2021-02-16 14:00:00 10.1 11 Este 27 Este 0 -- -- 63
2021-02-16 13:00:00 9.2 8 Sur 36 Noroeste 0 -- -- 66
2021-02-16 12:00:00 10.4 11 Sudeste 40 Sur 0 -- -- 57
2021-02-16 11:00:00 9.4 15 Este 49 Sudoeste 0 -- -- 56
2021-02-16 10:00:00 9.2 10 Este 33 Nordeste 0 -- -- 56
2021-02-16 09:00:00 8.7 9 Nordeste 48 Noroeste 0 -- -- 59
2021-02-16 08:00:00 8.9 12 Este 37 Oeste 0 -- -- 54
2021-02-16 07:00:00 9.1 8 Norte 33 Sudoeste 0 -- -- 60
2021-02-16 06:00:00 9.3 10 Sudeste 40 Este 0 -- -- 60
2021-02-16 05:00:00 9.4 6 Este 33 Sur 0 -- -- 61
2021-02-16 04:00:00 9.9 8 Este 36 Este 0 -- -- 59
2021-02-16 03:00:00 10.4 9 Nordeste 36 Norte 0 -- -- 55
2021-02-16 02:00:00 10.8 8 Nordeste 35 Noroeste 0 -- -- 51
2021-02-16 01:00:00 11.1 5 Este 24 Norte 0 -- -- 49
2021-02-16 00:00:00 11.2 4 Este 23 Noroeste 0 -- -- 44
2021-02-15 23:00:00 12 10 Norte 36 Noroeste 0 -- -- 43
2021-02-15 22:00:00 10.8 5 Norte 28 Noroeste 0 -- -- 47
2021-02-15 21:00:00 11.4 4 Sudeste 27 Nordeste 0 -- -- 43
2021-02-15 20:00:00 10.5 6 Sur 30 Sudoeste 0 -- -- 39
2021-02-15 19:00:00 10.6 3 Sudeste 17 Nordeste 0 -- -- 49
2021-02-15 18:00:00 13 8 Noroeste 27 Este 0 -- -- 39
2021-02-15 17:00:00 12.9 5 Norte 39 Noroeste 0 -- -- 42
2021-02-15 16:00:00 13.1 7 Este 31 Sudoeste 0 -- -- 37
2021-02-15 15:00:00 12.8 7 Sur 24 Sur 0 -- -- 39
2021-02-15 14:00:00 12.9 6 Sudeste 25 Sur 0 -- -- 43
2021-02-15 13:00:00 12.3 8 Sudeste 23 Sur 0 -- -- 48
2021-02-15 12:00:00 11.5 4 Este 16 Sur 0 -- -- 49
2021-02-15 11:00:00 9.6 8 Sur 24 Sur 0 -- -- 60
2021-02-15 10:00:00 7.9 4 Sudoeste 18 Sur 0 -- -- 61
2021-02-15 09:00:00 6.6 3 Sudoeste 12 Sudoeste 0 -- -- 58
2021-02-15 08:00:00 7.6 5 Sudoeste 10 Sudoeste 0 -- -- 46
2021-02-15 07:00:00 10.6 7 Sudeste 34 Noroeste 0 -- -- 32
2021-02-15 06:00:00 9.3 9 Sudeste 42 Este 0 -- -- 42
2021-02-15 05:00:00 10.2 7 Noroeste 23 Noroeste 0 -- -- 28
2021-02-15 04:00:00 9.9 4 Este 35 Norte 0 -- -- 50
2021-02-15 03:00:00 8.6 5 Sudeste 14 Este 0 -- -- 60
2021-02-15 02:00:00 8.9 5 Sudeste 23 Noroeste 0 -- -- 63
2021-02-15 01:00:00 7.8 2 Sur 13 Sur 0 -- -- 72
2021-02-15 00:00:00 8.1 4 Norte 11 Oeste 0 -- -- 71
2021-02-14 23:00:00 8.8 6 Oeste 21 Oeste 0 -- -- 64
2021-02-14 22:00:00 6.5 5 Este 14 Noroeste 0 -- -- 75
2021-02-14 21:00:00 7.3 4 Oeste 24 Sudoeste 0 -- -- 72
2021-02-14 20:00:00 8.9 7 Sur 28 Sur 0 -- -- 68
2021-02-14 19:00:00 9.8 9 Sudoeste 27 Sur 0 -- -- 64
2021-02-14 18:00:00 10.6 9 Sur 36 Sur 0 -- -- 62
2021-02-14 17:00:00 11.8 12 Sur 31 Sudeste 0 -- -- 61
2021-02-14 16:00:00 11.6 11 Sur 38 Sudoeste 0 -- -- 61
2021-02-14 15:00:00 11.3 18 Sudoeste 37 Sudoeste 0 -- -- 60
2021-02-14 14:00:00 11.5 12 Sur 39 Sudoeste 0 -- -- 61
2021-02-14 13:00:00 11.7 13 Sur 44 Sur 0 -- -- 59
2021-02-14 12:00:00 10.6 14 Sur 33 Sur 0 -- -- 63
2021-02-14 11:00:00 10.7 12 Sur 28 Sudoeste 0 -- -- 62
2021-02-14 10:00:00 8.8 10 Sudoeste 26 Sudoeste 0 -- -- 63
2021-02-14 09:00:00 4.4 4 Oeste 19 Oeste 0 -- -- 82
2021-02-14 08:00:00 3.6 2 Oeste 6 Nordeste 0 -- -- 87
2021-02-14 07:00:00 4 0 Calma 9 Noroeste 0 -- -- 86
2021-02-14 06:00:00 4.6 2 Sudoeste 9 Noroeste 0 -- -- 83
2021-02-14 05:00:00 5.2 4 Sudoeste 12 Sudoeste 0 -- -- 79
2021-02-14 04:00:00 7 6 Sur 17 Sur 0 -- -- 72
2021-02-14 03:00:00 3.8 2 Oeste 7 Oeste 0 -- -- 80
2021-02-14 02:00:00 3.4 0 Calma 5 Este 0 -- -- 82
2021-02-14 01:00:00 3.2 0 Calma -- -- 0 -- -- 84
2021-02-14 00:00:00 3.3 0 Calma 4 Norte 0 -- -- 88
2021-02-13 23:00:00 3.9 0 Calma 4 Noroeste 0 -- -- 90
2021-02-13 22:00:00 4.4 0 Calma 6 Oeste 0 -- -- 91
2021-02-13 21:00:00 4.5 3 Noroeste 6 Oeste 0 -- -- 91
2021-02-13 20:00:00 5.3 2 Sur 5 Sudoeste 0 -- -- 90
2021-02-13 19:00:00 6.6 2 Oeste 4 Oeste 0 -- -- 85
2021-02-13 18:00:00 9.1 2 Oeste 8 Sudoeste 0 -- -- 78
2021-02-13 17:00:00 10.2 5 Oeste 14 Sudoeste 0 -- -- 70
2021-02-13 16:00:00 12.2 4 Sur 23 Sudoeste 0 -- -- 56
2021-02-13 15:00:00 11.6 10 Oeste 27 Sudoeste 0 -- -- 55
2021-02-13 14:00:00 10.2 2 Norte 9 Noroeste 0 -- -- 76
2021-02-13 13:00:00 5.9 0 Calma 6 Este 0 -- -- 87
2021-02-13 08:00:00 -- -- -- -- -- -- -- -- --
2021-02-13 07:00:00 2.4 0 Calma 6 Sudoeste 0 -- -- 85
2021-02-13 06:00:00 2.7 2 Norte 9 Oeste 0 -- -- 83
2021-02-13 05:00:00 1.8 2 Noroeste 5 Noroeste 0 -- -- 88
2021-02-13 04:00:00 1.5 0 Calma 4 Sudoeste 0 -- -- 90
2021-02-13 03:00:00 1.6 0 Calma 3 Oeste 0 -- -- 90
2021-02-13 02:00:00 1.8 0 Calma 4 Sudoeste 0 -- -- 92
2021-02-13 01:00:00 1.8 2 Sudoeste 4 Sudoeste 0 -- -- 93
2021-02-13 00:00:00 1.8 0 Calma 3 Oeste 0 -- -- 91
2021-02-12 23:00:00 2.6 2 Oeste 6 Noroeste 0 -- -- 88
2021-02-12 22:00:00 2.7 0 Calma 5 Sudoeste 0 -- -- 92
2021-02-12 21:00:00 3.4 2 Sudoeste 7 Oeste 0 -- -- 90
2021-02-12 20:00:00 3.7 0 Calma 4 Oeste 0 -- -- 93
2021-02-12 19:00:00 4.8 0 Calma 5 Sudoeste 0 -- -- 91
2021-02-12 18:00:00 6.8 2 Sudoeste 26 Sur 0 -- -- 85
2021-02-12 17:00:00 8 8 Sudoeste 20 Sudoeste 0 -- -- 75
2021-02-12 16:00:00 8.2 3 Este 15 Este 0 -- -- 77
2021-02-12 15:00:00 8.3 4 Sudeste 17 Sur 0 -- -- 80
2021-02-12 14:00:00 7.5 3 Noroeste 5 Oeste 0 -- -- 91
2021-02-12 13:00:00 6.8 0 Calma 12 Noroeste 0 -- -- 94
2021-02-12 12:00:00 6.2 7 Sur 17 Sudoeste 0.6 -- -- 89
2021-02-12 11:00:00 5.1 3 Noroeste -- -- -- -- -- 98
2021-02-12 10:00:00 4.5 2 Oeste 6 Sudoeste 0 -- -- 99
2021-02-12 09:00:00 4.5 3 Noroeste 30 Sudoeste 0 -- -- 97
2021-02-12 08:00:00 4.6 5 Oeste 18 Sudoeste 0 -- -- 95
2021-02-12 07:00:00 5.5 0 Calma 5 Sudoeste 0 -- -- 100
2021-02-12 06:00:00 5.7 3 Noroeste 8 Sudeste 0 -- -- 99
2021-02-12 05:00:00 6 0 Calma 5 Norte 0 -- -- 99
2021-02-12 04:00:00 6.4 2 Sur 5 Sudoeste 0 -- -- 98
2021-02-12 03:00:00 7.1 2 Oeste 10 Sudoeste 0 -- -- 97
2021-02-12 02:00:00 7.7 5 Oeste 13 Noroeste 0 -- -- 95
2021-02-12 01:00:00 8.7 6 Noroeste 26 Sur 0 -- -- 88
2021-02-12 00:00:00 10.6 10 Este 42 Sur 0 -- -- 73
2021-02-11 23:00:00 9.5 9 Sur 23 Noroeste 0 -- -- 80
2021-02-11 22:00:00 8.7 4 Sudoeste 18 Este 0 -- -- 92
2021-02-11 21:00:00 9.6 4 Sudoeste 13 Nordeste 0 -- -- 84
2021-02-11 20:00:00 9.4 5 Sudeste 23 Sudoeste 0 -- -- 81
2021-02-11 19:00:00 10.3 8 Sudeste 22 Sur 0 -- -- 74
2021-02-11 18:00:00 10.6 9 Sur 27 Sur 0 -- -- 67
2021-02-11 17:00:00 9.9 6 Sudeste 23 Sur 0 -- -- 70
2021-02-11 16:00:00 10.3 5 Sudeste 21 Sur 0 -- -- 75
2021-02-11 15:00:00 11.1 5 Sur 26 Sur 0 -- -- 72
2021-02-11 14:00:00 10.4 8 Sur 21 Sudoeste 0 -- -- 74
2021-02-11 13:00:00 8.2 4 Sudeste 11 Noroeste 0 -- -- 95
2021-02-11 12:00:00 8.4 6 Sur 35 Oeste 0 -- -- 87
2021-02-11 11:00:00 8.9 13 Sudoeste 36 Oeste 0 -- -- 73
2021-02-11 10:00:00 8.4 5 Oeste 27 Oeste 0 -- -- 76
2021-02-11 09:00:00 6.7 3 Oeste 27 Sur 0 -- -- 82
2021-02-11 08:00:00 6.7 6 Noroeste 17 Oeste 0 -- -- 82
2021-02-11 07:00:00 6.1 4 Sudoeste 26 Oeste 0 -- -- 84
2021-02-11 06:00:00 6.4 6 Oeste 28 Oeste 0 -- -- 81
2021-02-11 05:00:00 6.5 9 Oeste 29 Oeste 0 -- -- 77
2021-02-11 04:00:00 5.6 6 Oeste 39 Oeste 0 -- -- 77
2021-02-11 03:00:00 6.4 9 Oeste 24 Sudoeste 0 -- -- 61
2021-02-11 02:00:00 6.6 5 Sudoeste 27 Sudeste 0 -- -- 55
2021-02-11 01:00:00 6.2 4 Sudoeste 26 Sudoeste 0 -- -- 57
2021-02-11 00:00:00 5.9 7 Sudoeste 21 Sur 0 -- -- 62
2021-02-10 23:00:00 4.6 7 Sudoeste 17 Sur 0 -- -- 76
2021-02-10 22:00:00 2.6 0 Calma 8 Noroeste 0 -- -- 90
2021-02-10 21:00:00 3.5 2 Sur 7 Sudoeste 0 -- -- 88
2021-02-10 20:00:00 4.4 2 Oeste 8 Oeste 0 -- -- 83
2021-02-10 19:00:00 5.3 4 Sudoeste 14 Sur 0 -- -- 75
2021-02-10 18:00:00 6.7 6 Sudoeste 18 Sudoeste 0 -- -- 65
2021-02-10 17:00:00 8.2 7 Sur 26 Sur 0 -- -- 56
2021-02-10 16:00:00 9.8 9 Sudoeste 23 Sudoeste 0 -- -- 51
2021-02-10 15:00:00 10 9 Sur 22 Sur 0 -- -- 51
2021-02-10 14:00:00 9.4 6 Norte 23 Norte 0 -- -- 56
2021-02-10 13:00:00 9.1 5 Noroeste 20 Sudoeste 0 -- -- 55
2021-02-10 12:00:00 7.6 9 Sudoeste 45 Noroeste 0 -- -- 58
2021-02-10 11:00:00 4.7 13 Norte 45 Nordeste 0 -- -- 69
2021-02-10 10:00:00 2.9 8 Sudoeste 23 Este 0 -- -- 82
2021-02-10 09:00:00 2.2 6 Sudeste 25 Sur 0 -- -- 83
2021-02-10 08:00:00 1.6 7 Sur 20 Sur 0 -- -- 83
2021-02-10 07:00:00 1.8 7 Sur 23 Sur 0 -- -- 85
2021-02-10 06:00:00 1.4 5 Sur 17 Sur 0 -- -- 96
2021-02-10 05:00:00 0.9 3 Sudoeste 12 Sudoeste 0 -- -- 98
2021-02-10 04:00:00 0.7 3 Oeste 10 Nordeste 0 -- -- 98
2021-02-10 03:00:00 1.1 3 Oeste 6 Sudoeste 0 -- -- 96
2021-02-10 02:00:00 1.3 2 Sur 12 Sur 0 -- -- 94
2021-02-10 01:00:00 2.7 6 Sur 20 Sur 0 -- -- 80
2021-02-10 00:00:00 3.1 7 Sur 28 Sur 0 -- -- 71
2021-02-09 23:00:00 2.6 7 Sudeste 21 Sur 0 -- -- 79
2021-02-09 22:00:00 2.1 8 Sudeste 23 Sudeste 0 -- -- 88
2021-02-09 21:00:00 1.5 3 Sudoeste 8 Oeste 0.6 -- -- 96
2021-02-09 20:00:00 2.4 3 Oeste 27 Sur 0.4 -- -- 91
2021-02-09 19:00:00 2.7 3 Sudeste 13 Sudoeste 0.2 -- -- 87
2021-02-09 18:00:00 3.9 7 Sur 26 Oeste 0 -- -- 76
2021-02-09 17:00:00 5.3 9 Sudeste 32 Oeste 0 -- -- 62
2021-02-09 16:00:00 6.8 9 Sudeste 26 Sur 0 -- -- 55
2021-02-09 15:00:00 5.9 10 Sudeste 28 Noroeste 0 -- -- 61
2021-02-09 14:00:00 5.2 8 Sudeste 26 Oeste 0 -- -- 63
2021-02-09 13:00:00 4.4 4 Sur 55 Sur 0.8 -- -- 89
2021-02-09 12:00:00 4.1 2 Norte 12 Oeste 2.2 -- -- 96
2021-02-09 11:00:00 4.3 3 Sur 10 Sur 1.2 -- -- 95
2021-02-09 10:00:00 4.5 6 Sudeste 15 Este 0.8 -- -- 91
2021-02-09 09:00:00 4.4 4 Sur 32 Noroeste 0.8 -- -- 87
2021-02-09 08:00:00 4.7 10 Nordeste 27 Este 0.4 -- -- 78
2021-02-09 07:00:00 4.7 7 Este 28 Norte 0.2 -- -- 79
2021-02-09 06:00:00 4.4 9 Norte 32 Noroeste 0 -- -- 78
2021-02-09 05:00:00 4.5 12 Este 32 Nordeste 0 -- -- 77
2021-02-09 04:00:00 4 6 Sudeste 21 Sur 1.2 -- -- 83
2021-02-09 03:00:00 5 8 Este 33 Sudoeste 0.4 -- -- 77
2021-02-09 02:00:00 5.7 8 Sur 32 Sudoeste 0 -- -- 63
2021-02-09 01:00:00 5.4 7 Sur 31 Oeste 0 -- -- 74
2021-02-09 00:00:00 4.5 5 Sur 20 Sur 0 -- -- 76
2021-02-08 23:00:00 4.9 6 Sudeste 24 Sur 0 -- -- 70
2021-02-08 22:00:00 4.7 4 Sudoeste 14 Sudoeste 0 -- -- 73
2021-02-08 21:00:00 4.3 6 Sur 27 Norte 0 -- -- 71
2021-02-08 20:00:00 4.3 4 Sur 18 Sudoeste 0 -- -- 74
2021-02-08 19:00:00 3.9 3 Sudeste 12 Sudoeste 0.2 -- -- 90
2021-02-08 18:00:00 6.1 5 Sudoeste 21 Norte 0 -- -- 72
2021-02-08 17:00:00 6 4 Oeste 19 Sudoeste 0 -- -- 62
2021-02-08 16:00:00 6.3 5 Sudeste 27 Sur 0 -- -- 68
2021-02-08 15:00:00 7.3 6 Sudeste 25 Sur 0 -- -- 59
2021-02-08 14:00:00 9.2 7 Sur 22 Sur 0 -- -- 60
2021-02-08 13:00:00 7 8 Sur 22 Sudeste 0 -- -- 61
2021-02-08 12:00:00 6.2 6 Sur 24 Sur 0 -- -- 66
2021-02-08 11:00:00 4.8 7 Sur 23 Oeste 0 -- -- 71
2021-02-08 10:00:00 3.9 9 Sur 25 Sur 0 -- -- 71
2021-02-08 09:00:00 3.2 6 Sudoeste 23 Sur 0 -- -- 78
2021-02-08 08:00:00 2.4 2 Sur 6 Noroeste 0 -- -- 93
2021-02-08 07:00:00 2.5 4 Sudoeste 11 Sudoeste 0 -- -- 90
2021-02-08 06:00:00 2.8 2 Oeste 23 Sur 0 -- -- 87
2021-02-08 05:00:00 3.8 6 Sur 15 Sur 0 -- -- 83
2021-02-08 04:00:00 4.4 7 Sur 28 Sudoeste 0 -- -- 81
2021-02-08 03:00:00 4.3 9 Sur 32 Oeste 0 -- -- 82
2021-02-08 02:00:00 5.1 8 Noroeste 37 Noroeste 0.2 -- -- 76
2021-02-08 01:00:00 2.5 4 Sur 18 Sudoeste 0 -- -- 97
2021-02-08 00:00:00 2.6 3 Sudoeste 9 Sur 0.8 -- -- 98
2021-02-07 23:00:00 2.9 4 Sudoeste 10 Noroeste 0.6 -- -- 96
2021-02-07 22:00:00 3 5 Sudoeste 27 Sur 0 -- -- 89
2021-02-07 21:00:00 2.9 6 Sudoeste 27 Sudoeste 0 -- -- 89
2021-02-07 20:00:00 2.6 8 Sudoeste 31 Oeste 0 -- -- 87
2021-02-07 19:00:00 2.2 2 Sudoeste 8 Oeste 1.4 -- -- 99
2021-02-07 18:00:00 2.4 4 Oeste 21 Oeste 4 -- -- 96
2021-02-07 17:00:00 2.4 5 Noroeste 21 Oeste 2.6 -- -- 92
2021-02-07 16:00:00 2.7 6 Sudoeste 26 Sur 1 -- -- 87
2021-02-07 15:00:00 3.6 6 Sudoeste 30 Sudoeste 0.4 -- -- 84
2021-02-07 14:00:00 3.7 11 Sudoeste 32 Sudoeste 0 -- -- 72
2021-02-07 13:00:00 4.3 5 Noroeste 12 Noroeste 0 -- -- 64
2021-02-07 12:00:00 2.2 0 Calma 7 Este 0 -- -- 65
2021-02-07 11:00:00 0.6 0 Calma 4 Este 0 -- -- 75
2021-02-07 10:00:00 -1.3 0 Calma 4 Noroeste 0 -- -- 88
2021-02-07 09:00:00 -2.3 0 Calma 5 Noroeste 0 -- -- 92
2021-02-07 08:00:00 -2.6 2 Sudoeste 4 Sudoeste 0 -- -- 93
2021-02-07 07:00:00 -2.9 0 Calma 5 Este 0 -- -- 93
2021-02-07 06:00:00 -2.9 3 Sudoeste 6 Sudoeste 0 -- -- 94
2021-02-07 05:00:00 -2.8 2 Noroeste 4 Este 0 -- -- 94
2021-02-07 04:00:00 -2.4 2 Noroeste 5 Sudoeste 0 -- -- 94
2021-02-07 03:00:00 -1.9 2 Oeste 5 Sudoeste 0 -- -- 95
2021-02-07 02:00:00 -1.6 4 Sudoeste 6 Sudoeste 0 -- -- 96
2021-02-07 01:00:00 -0.9 4 Sur 9 Sudoeste 0 -- -- 94
2021-02-07 00:00:00 -0.4 2 Noroeste 18 Sudoeste 0 -- -- 88
2021-02-06 23:00:00 -0.3 2 Sur 8 Sur 0 -- -- 96
2021-02-06 22:00:00 0.5 0 Calma 12 Este 0 -- -- 97
2021-02-06 21:00:00 0.7 2 Sudoeste 4 Sudoeste 0 -- -- 97
2021-02-06 20:00:00 1.2 0 Calma 4 Sudoeste 0 -- -- 96
2021-02-06 19:00:00 1.6 0 Calma 14 Este 0 -- -- 93
2021-02-06 18:00:00 2.4 4 Este 19 Nordeste 0 -- -- 88
2021-02-06 17:00:00 3 8 Este 19 Este 0 -- -- 86
2021-02-06 16:00:00 3.6 3 Noroeste 6 Noroeste 0.4 -- -- 93
2021-02-06 15:00:00 3.7 0 Calma 3 Este 0.4 -- -- 93
2021-02-06 14:00:00 3.7 0 Calma 4 Noroeste 0.2 -- -- 94
2021-02-06 13:00:00 3.1 2 Oeste 4 Noroeste 0.4 -- -- 94
2021-02-06 12:00:00 2.6 0 Calma 4 Noroeste 0.4 -- -- 97
2021-02-06 11:00:00 2.3 0 Calma 3 Noroeste 0.2 -- -- 99
2021-02-06 10:00:00 2 0 Calma 2 Noroeste 0.4 -- -- 99
2021-02-06 09:00:00 2 0 Calma 6 Oeste 0.4 -- -- 100
2021-02-06 08:00:00 2.2 3 Noroeste 9 Oeste 0.2 -- -- 100
2021-02-06 07:00:00 2.4 4 Oeste 11 Sudoeste 0.4 -- -- 100
2021-02-06 06:00:00 2.6 0 Calma 3 Sudoeste 0.4 -- -- 100
2021-02-06 05:00:00 2.6 0 Calma 3 Este 0.4 -- -- 100
2021-02-06 04:00:00 2.5 0 Calma 3 Este 0 -- -- 100
2021-02-06 03:00:00 2.5 0 Calma 4 Noroeste 0.8 -- -- 100
2021-02-06 02:00:00 2.7 0 Calma 5 Norte 1.6 -- -- 100
2021-02-06 01:00:00 2.7 0 Calma 6 Oeste 0.8 -- -- 100
2021-02-06 00:00:00 2.6 2 Sudoeste 10 Oeste 0.6 -- -- 99
2021-02-05 23:00:00 3.3 2 Oeste 8 Noroeste 4.8 -- -- 98
2021-02-05 22:00:00 4.1 2 Oeste 7 Noroeste 3.4 -- -- 100
2021-02-05 21:00:00 4.2 2 Sudeste 4 Este 1.2 -- -- 100
2021-02-05 20:00:00 4.3 0 Calma 3 Noroeste 0.4 -- -- 100
2021-02-05 19:00:00 4.3 0 Calma 3 Sur 0 -- -- 99
2021-02-05 18:00:00 4.6 0 Calma 4 Sur 0 -- -- 98
2021-02-05 17:00:00 4.8 0 Calma 6 Sudoeste 0 -- -- 96
2021-02-05 16:00:00 5.2 4 Sur 11 Sudoeste 0 -- -- 96
2021-02-05 15:00:00 5 3 Norte 7 Noroeste -- -- -- 96
2021-02-05 14:00:00 4.6 0 Calma 3 Sur 0 -- -- 96
2021-02-05 13:00:00 4.3 0 Calma 5 Noroeste 0 -- -- 96
2021-02-05 12:00:00 3.5 0 Calma 3 Este 0 -- -- 100
2021-02-05 11:00:00 2.9 0 Calma 4 Este 0 -- -- 99
2021-02-05 10:00:00 2.6 0 Calma 5 Sudoeste 0 -- -- 99
2021-02-05 09:00:00 3.2 0 Calma 3 Sudoeste 0 -- -- 100
2021-02-05 08:00:00 3.3 0 Calma 3 Sur 0 -- -- 100
2021-02-05 07:00:00 3.3 0 Calma 5 Sur 0 -- -- 100
2021-02-05 06:00:00 3.3 0 Calma 3 Noroeste 0 -- -- 100
2021-02-05 05:00:00 3.4 0 Calma 4 Sudoeste 0 -- -- 100
2021-02-05 04:00:00 3.5 0 Calma 4 Sudoeste 0 -- -- 100
2021-02-05 03:00:00 3.5 2 Sur 6 Sur 0 -- -- 99
2021-02-05 02:00:00 3.5 0 Calma 4 Sudoeste 0 -- -- 99
2021-02-05 01:00:00 3.6 0 Calma 4 Sudoeste 0 -- -- 99
2021-02-05 00:00:00 3.5 0 Calma 4 Este 0 -- -- 99
2021-02-04 23:00:00 3.5 0 Calma 5 Oeste 0 -- -- 98
2021-02-04 22:00:00 3.4 2 Noroeste 5 Oeste 0 -- -- 98
2021-02-04 21:00:00 3.1 0 Calma 5 Sudoeste 0 -- -- 96
2021-02-04 20:00:00 3.3 0 Calma 4 Oeste 0 -- -- 96
2021-02-04 19:00:00 3.7 0 Calma 4 Noroeste 0 -- -- 94
2021-02-04 18:00:00 4.2 0 Calma -- -- 0 -- -- 90
2021-02-04 17:00:00 4.5 0 Calma 4 Nordeste 0 -- -- 87
2021-02-04 16:00:00 5.3 2 Oeste 6 Noroeste 0 -- -- 80
2021-02-04 15:00:00 6.1 6 Noroeste 10 Noroeste 0 -- -- 67
2021-02-04 14:00:00 6.5 4 Oeste 13 Oeste 0 -- -- 61
2021-02-04 13:00:00 7.4 5 Sur 17 Sur 0 -- -- 56
2021-02-04 12:00:00 7.3 8 Sudeste 23 Sudeste 0 -- -- 56
2021-02-04 11:00:00 6.9 5 Sur 14 Sudoeste 0 -- -- 59
2021-02-04 10:00:00 6 3 Sudeste 15 Nordeste 0 -- -- 64
2021-02-04 09:00:00 5.4 4 Sur 13 Sur 0 -- -- 73
2021-02-04 08:00:00 5.8 5 Sur 16 Sudeste 0 -- -- 64
2021-02-04 07:00:00 5.9 4 Este 26 Sur 0 -- -- 65
2021-02-04 06:00:00 5.7 4 Sudeste 16 Este 0 -- -- 66
2021-02-04 05:00:00 5.7 3 Este 20 Noroeste 0 -- -- 68
2021-02-04 04:00:00 6.2 5 Este 17 Este 0 -- -- 67
2021-02-04 03:00:00 6.6 5 Sudeste 22 Nordeste 0 -- -- 66
2021-02-04 02:00:00 7.2 8 Sudeste 27 Sur 0 -- -- 66
2021-02-04 01:00:00 7.6 9 Este 31 Nordeste 0 -- -- 66
2021-02-04 00:00:00 7.7 7 Este 24 Sudoeste 0 -- -- 63
2021-02-03 23:00:00 7.9 10 Sudeste 31 Sur 0 -- -- 60
2021-02-03 22:00:00 7.9 10 Este 31 Nordeste 0 -- -- 61
2021-02-03 21:00:00 8.2 8 Este 44 Sur 0 -- -- 57
2021-02-03 20:00:00 8.1 6 Este 17 Este 0 -- -- 63
2021-02-03 19:00:00 8.2 5 Este 17 Este 0 -- -- 65
2021-02-03 18:00:00 8.5 4 Este 17 Noroeste 0 -- -- 61
2021-02-03 17:00:00 8.9 7 Norte 29 Sudoeste 0 -- -- 59
2021-02-03 16:00:00 8.3 8 Sudeste 23 Sur 0 -- -- 63
2021-02-03 15:00:00 8.9 9 Sur 30 Este 0 -- -- 55
2021-02-03 14:00:00 8.7 9 Este 24 Este 0 -- -- 54
2021-02-03 13:00:00 8.8 12 Este 40 Este 0 -- -- 54
2021-02-03 12:00:00 8.1 10 Sudeste 32 Este 0 -- -- 55
2021-02-03 11:00:00 8.1 9 Sudeste 35 Sur 0 -- -- 56
2021-02-03 10:00:00 7.7 15 Sudeste 49 Sudoeste 0 -- -- 55
2021-02-03 09:00:00 7.5 9 Sur 41 Este 0.2 -- -- 58
2021-02-03 08:00:00 7.7 13 Sur 42 Este 0.4 -- -- 74
2021-02-03 07:00:00 8 12 Sudeste 42 Este 0.4 -- -- 80
2021-02-03 06:00:00 8.5 10 Este 32 Este 1.2 -- -- 76
2021-02-03 05:00:00 8.5 10 Este 40 Este 0.8 -- -- 84
2021-02-03 04:00:00 8.5 8 Este 31 Sudoeste 0.2 -- -- 81
2021-02-03 03:00:00 7.3 5 Sudeste 30 Sudeste 0.6 -- -- 90
2021-02-03 02:00:00 7.5 8 Sudeste 37 Este 0.8 -- -- 88
2021-02-03 01:00:00 7.8 8 Sudeste 26 Sudoeste 0.4 -- -- 86
2021-02-03 00:00:00 8 8 Este 20 Sudeste 0.4 -- -- 84
2021-02-02 23:00:00 8 8 Noroeste 21 Noroeste 0 -- -- 83
2021-02-02 22:00:00 7.1 6 Este 13 Este 0.6 -- -- 93
2021-02-02 21:00:00 8.3 5 Este 19 Noroeste 0 -- -- 83
2021-02-02 20:00:00 7.8 10 Nordeste 26 Noroeste 1.6 -- -- 82
2021-02-02 19:00:00 9.2 7 Este 23 Norte 0 -- -- 74
2021-02-02 18:00:00 9.3 6 Este 22 Sur 0 -- -- 76
2021-02-02 17:00:00 9.6 6 Sudeste 24 Sudeste 0 -- -- 77
2021-02-02 16:00:00 9.5 3 Oeste 23 Sur 0.2 -- -- 81
2021-02-02 15:00:00 8.6 8 Sudeste 24 Este 0.2 -- -- 81
2021-02-02 14:00:00 8.8 6 Norte 24 Sur 0.6 -- -- 79
2021-02-02 13:00:00 10 9 Sur 32 Sur 0 -- -- 72
2021-02-02 12:00:00 10.1 14 Sur 41 Sur 0 -- -- 70
2021-02-02 11:00:00 9.6 12 Sur 39 Sudeste 0 -- -- 72
2021-02-02 10:00:00 8.9 9 Sudeste 28 Sur 0 -- -- 74
2021-02-02 09:00:00 7.9 6 Sudoeste 24 Sur 0 -- -- 73
2021-02-02 08:00:00 7.9 6 Sudoeste 21 Sur 0 -- -- 74
2021-02-02 07:00:00 8.7 5 Sudeste 24 Sur 0 -- -- 71
2021-02-02 06:00:00 8.9 8 Sur 27 Sur 0 -- -- 68
2021-02-02 05:00:00 9.6 13 Sudoeste 39 Sudoeste 0 -- -- 65
2021-02-02 04:00:00 10.1 14 Sur 33 Sur 0 -- -- 64
2021-02-02 03:00:00 9.6 9 Oeste 28 Sudoeste 0 -- -- 66
2021-02-02 02:00:00 9.5 7 Sudoeste 28 Oeste 0 -- -- 70
2021-02-02 01:00:00 9.8 7 Sur 26 Sudoeste 0 -- -- 69
2021-02-02 00:00:00 9.3 6 Sur 32 Sur 0 -- -- 72
2021-02-01 23:00:00 9 9 Sur 28 Sur 0 -- -- 74
2021-02-01 22:00:00 9.1 7 Sudoeste 17 Sur 0 -- -- 74
2021-02-01 21:00:00 9.5 4 Sur 25 Oeste 0 -- -- 72
2021-02-01 20:00:00 11.4 9 Sur 22 Sur 0 -- -- 64
2021-02-01 19:00:00 12.4 6 Sur 17 Sudoeste 0 -- -- 60
2021-02-01 18:00:00 11.3 5 Sur 13 Sur 0 -- -- 59
2021-02-01 17:00:00 10.7 3 Sudoeste 17 Sur 0 -- -- 62
2021-02-01 16:00:00 11.2 6 Sur 25 Sur 0 -- -- 58
2021-02-01 15:00:00 13 5 Sudeste 25 Sur 0 -- -- 39
2021-02-01 14:00:00 14.7 8 Sur 32 Sudoeste 0 -- -- 43
2021-02-01 13:00:00 13.7 8 Este 43 Noroeste 0 -- -- 46
2021-02-01 12:00:00 12.1 12 Noroeste 49 Noroeste 0 -- -- 60
2021-02-01 11:00:00 12.1 13 Noroeste 43 Noroeste 0 -- -- 59
2021-02-01 10:00:00 12.2 14 Noroeste 59 Noroeste 0 -- -- 53
2021-02-01 09:00:00 11.9 12 Norte 64 Noroeste 0 -- -- 47
2021-02-01 08:00:00 10.9 5 Sur 42 Noroeste 0 -- -- 34
2021-02-01 07:00:00 10.2 9 Oeste 31 Sur 0 -- -- 31
2021-02-01 06:00:00 8.8 8 Sur 35 Sudoeste 0 -- -- 41
2021-02-01 05:00:00 8 7 Sur 22 Noroeste 0 -- -- 48
2021-02-01 04:00:00 8.3 6 Este 36 Sur 0 -- -- 51
2021-02-01 03:00:00 8.2 12 Sur 37 Sur 0 -- -- 55
2021-02-01 02:00:00 8.6 7 Sur 42 Sur 0 -- -- 56
2021-02-01 01:00:00 9 14 Sur 44 Noroeste 0 -- -- 49
2021-02-01 00:00:00 9.3 10 Noroeste 36 Sudoeste 0 -- -- 49
2021-01-31 23:00:00 9.4 10 Sudeste 36 Sur 0 -- -- 50
2021-01-31 22:00:00 10.1 13 Sur 36 Sur 0 -- -- 45
2021-01-31 21:00:00 10.9 7 Este 36 Este 0 -- -- 43
2021-01-31 20:00:00 11 7 Este 41 Noroeste 0 -- -- 48
2021-01-31 19:00:00 11.9 9 Este 34 Sudoeste 0 -- -- 40
2021-01-31 18:00:00 12 9 Sudeste 35 Nordeste 0 -- -- 40
2021-01-31 17:00:00 12.4 8 Sudeste 26 Sur 0 -- -- 39
2021-01-31 16:00:00 13.6 7 Este 30 Noroeste 0 -- -- 38
2021-01-31 15:00:00 13.8 8 Sur 28 Sur 0 -- -- 39
2021-01-31 14:00:00 14.5 7 Sudeste 36 Sur 0 -- -- 41
2021-01-31 13:00:00 14.6 8 Sur 38 Sur 0 -- -- 39
2021-01-31 12:00:00 13 10 Sudoeste 29 Noroeste 0 -- -- 45
2021-01-31 11:00:00 11.2 9 Sur 41 Norte 1 -- -- 64
2021-01-31 10:00:00 6.5 3 Noroeste 16 Noroeste 1.4 -- -- 100
2021-01-31 09:00:00 4.9 2 Sudoeste 9 Noroeste 1.2 -- -- 97
2021-01-31 08:00:00 5.7 7 Oeste 29 Oeste 2 -- -- 89
2021-01-31 07:00:00 7.5 10 Sudoeste 32 Sudoeste 0 -- -- 62
2021-01-31 06:00:00 6.2 10 Sudoeste 34 Sudoeste 0 -- -- 63
2021-01-31 05:00:00 6.3 13 Sudoeste 36 Sudoeste 0 -- -- 62
2021-01-31 04:00:00 6.5 12 Sur 34 Oeste 0 -- -- 63
2021-01-31 03:00:00 5 8 Oeste 35 Sur 0.2 -- -- 77
2021-01-31 02:00:00 4 6 Sudeste 21 Sur 0.8 -- -- 87
2021-01-31 01:00:00 3.5 8 Sur 28 Sur 1.4 -- -- 91
2021-01-31 00:00:00 3 8 Sudeste 22 Sur 2 -- -- 93